createdAt,value
2022-09-27T00:03:44.404Z,10.4
2022-09-27T00:08:44.427Z,10.4
2022-09-27T00:13:44.671Z,10.4
2022-09-27T00:18:44.647Z,10.3
2022-09-27T00:23:44.207Z,10.3
2022-09-27T00:28:44.467Z,10.3
2022-09-27T00:33:44.643Z,10.3
2022-09-27T00:38:43.859Z,10.3
2022-09-27T00:43:43.829Z,10.3
2022-09-27T00:48:44.017Z,10.3
2022-09-27T00:53:44.192Z,10.3
2022-09-27T00:58:44.381Z,10.3
2022-09-27T01:03:44.400Z,10.3
2022-09-27T01:08:44.638Z,10.3
2022-09-27T01:13:43.927Z,10.3
2022-09-27T01:18:44.050Z,10.3
2022-09-27T01:23:44.267Z,10.3
2022-09-27T01:28:44.282Z,10.3
2022-09-27T01:33:44.505Z,10.3
2022-09-27T01:38:43.861Z,10.3
2022-09-27T01:43:44.059Z,10.3
2022-09-27T01:48:44.468Z,10.2
2022-09-27T01:53:44.547Z,10.2
2022-09-27T01:58:44.554Z,10.3
2022-09-27T02:03:43.945Z,10.3
2022-09-27T02:08:44.129Z,10.2
2022-09-27T02:13:44.721Z,10.2
2022-09-27T02:18:44.020Z,10.2
2022-09-27T02:23:44.242Z,10.2
2022-09-27T02:28:44.436Z,10.2
2022-09-27T02:33:44.545Z,10.2
2022-09-27T02:38:44.065Z,10.2
2022-09-27T02:43:44.532Z,10.2
2022-09-27T02:48:44.871Z,10.2
2022-09-27T02:53:44.494Z,10.2
2022-09-27T02:58:44.782Z,10.2
2022-09-27T03:03:44.015Z,10.2
2022-09-27T03:08:44.579Z,10.2
2022-09-27T03:14:09.458Z,10.2
2022-09-27T03:18:44.757Z,10.2
2022-09-27T03:23:44.179Z,10.2
2022-09-27T03:28:44.688Z,10.2
2022-09-27T03:33:43.937Z,10.2
2022-09-27T03:38:44.201Z,10.2
2022-09-27T03:43:44.520Z,10.2
2022-09-27T03:48:44.659Z,10.2
2022-09-27T03:53:43.966Z,10.2
2022-09-27T03:58:44.472Z,10.2
2022-09-27T04:03:43.946Z,10.2
2022-09-27T04:08:44.120Z,10.2
2022-09-27T04:13:44.587Z,10.2
2022-09-27T04:18:44.025Z,10.2
2022-09-27T04:23:44.303Z,10.2
2022-09-27T04:28:44.088Z,10.2
2022-09-27T04:33:44.764Z,10.2
2022-09-27T04:38:44.162Z,10.3
2022-09-27T04:43:44.571Z,10.3
2022-09-27T04:48:44.919Z,10.3
2022-09-27T04:53:44.154Z,10.3
2022-09-27T04:58:44.609Z,10.3
2022-09-27T05:03:43.949Z,10.3
2022-09-27T05:08:44.347Z,10.4
2022-09-27T05:13:44.211Z,10.4
2022-09-27T05:18:44.521Z,10.4
2022-09-27T05:23:48.235Z,10.4
2022-09-27T05:28:44.441Z,10.4
2022-09-27T05:33:44.422Z,10.4
2022-09-27T05:38:44.594Z,10.4
2022-09-27T05:43:44.939Z,10.4
2022-09-27T05:48:44.126Z,10.4
2022-09-27T05:53:44.653Z,10.4
2022-09-27T05:58:45.222Z,10.4
2022-09-27T06:03:44.021Z,10.4
2022-09-27T06:08:44.297Z,10.5
2022-09-27T06:13:44.468Z,10.5
2022-09-27T06:18:44.699Z,10.6
2022-09-27T06:23:44.925Z,10.6
2022-09-27T06:28:44.171Z,10.7
2022-09-27T06:33:44.390Z,10.7
2022-09-27T06:38:44.641Z,10.7
2022-09-27T06:43:44.852Z,10.7
2022-09-27T06:48:44.060Z,10.7
2022-09-27T06:53:44.388Z,10.7
2022-09-27T06:58:44.567Z,10.6
2022-09-27T07:03:45.037Z,10.6
2022-09-27T07:08:44.345Z,10.6
2022-09-27T07:13:44.607Z,10.6
2022-09-27T07:18:44.701Z,10.4
2022-09-27T07:23:44.161Z,10.4
2022-09-27T07:28:44.355Z,10.2
2022-09-27T07:33:44.743Z,10.2
2022-09-27T07:38:44.113Z,10.2
2022-09-27T07:43:44.357Z,10.2
2022-09-27T07:48:44.615Z,10.4
2022-09-27T07:53:44.824Z,10.4
2022-09-27T07:58:45.031Z,10.6
2022-09-27T08:03:44.273Z,10.6
2022-09-27T08:08:44.409Z,10.7
2022-09-27T08:13:44.714Z,10.7
2022-09-27T08:18:44.814Z,10.8
2022-09-27T08:23:44.133Z,10.8
2022-09-27T08:28:44.342Z,10.8
2022-09-27T08:33:44.448Z,10.8
2022-09-27T08:38:44.992Z,10.8
2022-09-27T08:43:44.110Z,10.8
2022-09-27T08:48:44.278Z,10.8
2022-09-27T08:53:44.894Z,10.8
2022-09-27T08:58:44.565Z,10.7
2022-09-27T09:03:44.229Z,10.7
2022-09-27T09:08:51.276Z,10.6
2022-09-27T09:13:44.167Z,10.6
2022-09-27T09:18:44.692Z,10.5
2022-09-27T09:23:45.031Z,10.5
2022-09-27T09:28:44.392Z,10.5
2022-09-27T09:33:44.866Z,10.5
2022-09-27T09:38:45.004Z,10.6
2022-09-27T09:43:44.699Z,10.6
2022-09-27T09:48:44.910Z,10.5
2022-09-27T09:53:44.248Z,10.5
2022-09-27T09:58:45.018Z,10.6
2022-09-27T10:03:44.563Z,10.6
2022-09-27T10:08:45.010Z,10.6
2022-09-27T10:13:44.438Z,10.6
2022-09-27T10:18:50.370Z,10.6
2022-09-27T10:23:44.567Z,10.6
2022-09-27T10:28:44.806Z,10.7
2022-09-27T10:33:44.978Z,10.7
2022-09-27T10:38:44.266Z,10.8
2022-09-27T10:43:44.604Z,10.8
2022-09-27T10:48:44.847Z,11.1
2022-09-27T10:53:45.081Z,11.1
2022-09-27T10:58:44.484Z,11.1
2022-09-27T11:03:44.609Z,11.1
2022-09-27T11:08:44.344Z,11.2
2022-09-27T11:13:44.766Z,11.2
2022-09-27T11:18:44.914Z,11.1
2022-09-27T11:23:45.013Z,11.1
2022-09-27T11:28:44.157Z,11
2022-09-27T11:33:44.352Z,11
2022-09-27T11:38:54.036Z,11.1
2022-09-27T11:43:44.720Z,11.1
2022-09-27T11:48:44.940Z,11.3
2022-09-27T11:53:45.097Z,11.3
2022-09-27T11:58:44.532Z,11.3
2022-09-27T12:03:44.689Z,11.3
2022-09-27T12:08:44.916Z,11.4
2022-09-27T12:13:44.242Z,11.4
2022-09-27T12:18:51.801Z,11.6
2022-09-27T12:23:44.180Z,11.6
2022-09-27T12:28:44.379Z,11.7
2022-09-27T12:33:44.533Z,11.7
2022-09-27T12:38:44.662Z,11.7
2022-09-27T12:43:49.860Z,11.7
2022-09-27T12:48:45.117Z,11.7
2022-09-27T12:53:44.513Z,11.7
2022-09-27T12:58:44.804Z,11.7
2022-09-27T13:03:45.053Z,11.7
2022-09-27T13:08:44.524Z,11.8
2022-09-27T13:13:45.010Z,11.8
2022-09-27T13:18:45.224Z,11.8
2022-09-27T13:23:45.115Z,11.8
2022-09-27T13:28:44.308Z,11.7
2022-09-27T13:33:44.431Z,11.7
2022-09-27T13:38:44.674Z,11.8
2022-09-27T13:43:44.159Z,11.8
2022-09-27T13:48:44.298Z,11.9
2022-09-27T13:53:44.482Z,11.9
2022-09-27T13:58:44.414Z,12
2022-09-27T14:03:44.766Z,12
2022-09-27T14:08:45.039Z,11.8
2022-09-27T14:13:44.441Z,11.8
2022-09-27T14:18:45.169Z,11.7
2022-09-27T14:23:44.328Z,11.7
2022-09-27T14:28:44.693Z,11.6
2022-09-27T14:33:44.865Z,11.6
2022-09-27T14:38:45.197Z,11.6
2022-09-27T14:43:44.667Z,11.6
2022-09-27T14:48:44.864Z,11.6
2022-09-27T14:53:44.625Z,11.6
2022-09-27T14:58:48.606Z,11.7
2022-09-27T15:03:45.281Z,11.7
2022-09-27T15:08:45.030Z,11.8
2022-09-27T15:13:44.643Z,11.8
2022-09-27T15:18:44.849Z,11.9
2022-09-27T15:23:44.726Z,11.9
2022-09-27T15:28:45.372Z,11.8
2022-09-27T15:33:44.270Z,11.8
2022-09-27T15:38:44.980Z,11.7
2022-09-27T15:43:44.526Z,11.7
2022-09-27T15:48:44.419Z,11.6
2022-09-27T15:53:44.805Z,11.6
2022-09-27T15:58:45.145Z,11.4
2022-09-27T16:03:44.682Z,11.4
2022-09-27T16:08:45.147Z,11.2
2022-09-27T16:13:44.865Z,11.2
2022-09-27T16:18:45.197Z,11.1
2022-09-27T16:23:44.477Z,11.1
2022-09-27T16:28:44.795Z,11
2022-09-27T16:33:45.317Z,11
2022-09-27T16:38:44.473Z,10.8
2022-09-27T16:43:44.683Z,10.8
2022-09-27T16:48:45.032Z,10.8
2022-09-27T16:53:44.405Z,10.8
2022-09-27T16:58:44.868Z,10.7
2022-09-27T17:03:44.915Z,10.7
2022-09-27T17:08:45.243Z,10.6
2022-09-27T17:13:44.566Z,10.6
2022-09-27T17:18:44.670Z,10.4
2022-09-27T17:23:45.014Z,10.4
2022-09-27T17:28:44.403Z,10.3
2022-09-27T17:33:44.569Z,10.3
2022-09-27T17:38:44.795Z,10.1
2022-09-27T17:43:44.980Z,10.1
2022-09-27T17:48:45.095Z,10.1
2022-09-27T17:53:45.265Z,10.1
2022-09-27T17:58:44.711Z,10
2022-09-27T18:03:44.933Z,10
2022-09-27T18:08:45.069Z,10
2022-09-27T18:13:45.323Z,10
2022-09-27T18:18:44.605Z,10
2022-09-27T18:23:44.999Z,10
2022-09-27T18:28:44.627Z,10
2022-09-27T18:33:45.042Z,10
2022-09-27T18:38:45.240Z,10
2022-09-27T18:43:45.402Z,10
2022-09-27T18:48:44.536Z,9.9
2022-09-27T18:53:44.781Z,9.9
2022-09-27T18:58:44.868Z,9.9
2022-09-27T19:03:45.126Z,9.9
2022-09-27T19:08:45.183Z,9.8
2022-09-27T19:13:51.802Z,9.8
2022-09-27T19:18:45.231Z,9.7
2022-09-27T19:23:45.357Z,9.7
2022-09-27T19:28:44.532Z,9.7
2022-09-27T19:33:44.728Z,9.7
2022-09-27T19:38:44.816Z,9.6
2022-09-27T19:43:44.725Z,9.6
2022-09-27T19:48:44.758Z,9.6
2022-09-27T19:53:45.041Z,9.6
2022-09-27T19:58:45.310Z,9.6
2022-09-27T20:03:44.424Z,9.6
2022-09-27T20:08:44.934Z,9.6
2022-09-27T20:13:45.199Z,9.6
2022-09-27T20:18:45.418Z,9.6
2022-09-27T20:23:44.540Z,9.6
2022-09-27T20:28:44.647Z,9.6
2022-09-27T20:33:44.677Z,9.6
2022-09-27T20:38:44.899Z,9.6
2022-09-27T20:43:45.030Z,9.6
2022-09-27T20:48:45.111Z,9.6
2022-09-27T20:53:44.378Z,9.6
2022-09-27T20:58:44.762Z,9.6
2022-09-27T21:03:44.544Z,9.6
2022-09-27T21:08:45.203Z,9.6
2022-09-27T21:13:45.390Z,9.6
2022-09-27T21:18:45.195Z,9.5
2022-09-27T21:23:45.396Z,9.5
2022-09-27T21:28:44.497Z,9.4
2022-09-27T21:33:44.732Z,9.4
2022-09-27T21:38:44.882Z,9.3
2022-09-27T21:43:44.713Z,9.3
2022-09-27T21:48:45.074Z,9.1
2022-09-27T21:53:45.150Z,9.1
2022-09-27T21:58:44.545Z,8.9
2022-09-27T22:03:45.374Z,8.9
2022-09-27T22:08:44.812Z,8.9
2022-09-27T22:13:44.714Z,8.9
2022-09-27T22:18:44.854Z,8.8
2022-09-27T22:23:45.044Z,8.8
2022-09-27T22:28:45.174Z,8.7
2022-09-27T22:33:45.401Z,8.7
2022-09-27T22:38:44.554Z,8.6
2022-09-27T22:43:45.038Z,8.6
2022-09-27T22:48:45.198Z,8.5
2022-09-27T22:53:45.423Z,8.5
2022-09-27T22:58:44.651Z,8.3
2022-09-27T23:03:44.857Z,8.3
2022-09-27T23:08:44.925Z,8.2
2022-09-27T23:13:45.211Z,8.2
2022-09-27T23:18:45.349Z,8.2
2022-09-27T23:23:44.493Z,8.2
2022-09-27T23:28:44.718Z,8.1
2022-09-27T23:33:44.798Z,8.1
2022-09-27T23:38:44.912Z,8.1
2022-09-27T23:43:45.199Z,8.1
2022-09-27T23:48:45.268Z,8.1
2022-09-27T23:53:45.512Z,8.1
2022-09-27T23:58:44.562Z,8.1
